createdAt,value
2023-05-24T04:31:33.161Z,0.0000
2023-05-24T04:32:35.000Z,0.0000
2023-05-24T04:33:37.036Z,0.0000
2023-05-24T04:34:39.164Z,0.0000
2023-05-24T04:35:41.114Z,0.0000
2023-05-24T04:36:43.148Z,0.0000
2023-05-24T04:37:45.217Z,0.0000
2023-05-24T04:38:47.278Z,0.0000
2023-05-24T04:39:49.379Z,0.0000
2023-05-24T04:40:51.345Z,0.0000
2023-05-24T04:41:53.407Z,0.0000
2023-05-24T04:42:55.420Z,9.3077
2023-05-24T04:43:57.449Z,14.6154
2023-05-24T04:44:59.514Z,1.8462
2023-05-24T04:46:01.559Z,2.4615
2023-05-24T04:47:03.687Z,4.9231
2023-05-24T04:48:05.696Z,2.3077
2023-05-24T04:49:07.673Z,2.3846
2023-05-24T04:50:09.761Z,4.6923
2023-05-24T04:51:11.781Z,3.0000
2023-05-24T04:52:13.838Z,2.0000
2023-05-24T04:53:15.871Z,3.9231
2023-05-24T04:54:17.914Z,3.1538
2023-05-24T04:55:19.949Z,3.6154
2023-05-24T04:56:21.989Z,3.3846
2023-05-24T04:57:24.035Z,3.2308
2023-05-24T04:58:26.087Z,4.5385
2023-05-24T04:59:28.111Z,8.9231
2023-05-24T05:00:30.174Z,40.5385
2023-05-24T05:01:32.222Z,47.1538
2023-05-24T05:02:34.301Z,43.9231
2023-05-24T05:03:36.412Z,30.6923
2023-05-24T05:04:38.326Z,45.5385
2023-05-24T05:05:40.376Z,88.0000
2023-05-24T05:06:42.442Z,148.8462
2023-05-24T05:07:44.496Z,183.2308
2023-05-24T05:08:46.519Z,202.4615
2023-05-24T05:09:48.588Z,158.4615
2023-05-24T05:10:50.633Z,165.5385
2023-05-24T05:11:52.672Z,169.6154
2023-05-24T05:12:54.706Z,187.0000
2023-05-24T05:13:56.798Z,196.6154
2023-05-24T05:14:58.796Z,389.0000
2023-05-24T05:16:00.882Z,303.0769
2023-05-24T05:17:02.912Z,191.9231
2023-05-24T05:18:04.991Z,173.0769
2023-05-24T05:19:07.007Z,184.1538
2023-05-24T05:20:09.133Z,159.2308
2023-05-24T05:21:11.070Z,140.4615
2023-05-24T05:22:13.114Z,147.0769
2023-05-24T05:23:15.287Z,121.0000
2023-05-24T05:24:17.243Z,127.3077
2023-05-24T05:25:19.277Z,137.3077
2023-05-24T05:26:21.313Z,140.3846
2023-05-24T05:27:23.355Z,131.3846
2023-05-24T05:28:25.398Z,111.4615
2023-05-24T05:29:27.424Z,101.6923
2023-05-24T05:30:29.513Z,97.3846
2023-05-24T05:31:31.538Z,87.6923
2023-05-24T05:32:33.633Z,89.3077
2023-05-24T05:33:35.643Z,80.3077
2023-05-24T05:34:37.671Z,73.9231
2023-05-24T05:35:39.718Z,73.0769
2023-05-24T05:36:41.754Z,75.8462
2023-05-24T05:37:43.852Z,84.7692
2023-05-24T05:38:45.830Z,80.3077
2023-05-24T05:39:47.913Z,79.8462
2023-05-24T05:40:49.949Z,83.8462
2023-05-24T05:41:51.987Z,81.6154
2023-05-24T05:42:54.025Z,75.5385
2023-05-24T05:43:56.347Z,61.6923
2023-05-24T05:44:58.166Z,62.3846
2023-05-24T05:46:00.230Z,55.5385
2023-05-24T05:47:02.254Z,59.4615
2023-05-24T05:48:04.334Z,58.7692
2023-05-24T05:49:06.398Z,63.7692
2023-05-24T05:50:08.406Z,56.2308
2023-05-24T05:51:10.450Z,44.7692
2023-05-24T05:52:12.482Z,53.3077
2023-05-24T05:53:14.523Z,51.9231
2023-05-24T05:54:16.601Z,48.8462
2023-05-24T05:55:18.594Z,54.2308
2023-05-24T05:56:20.647Z,55.6154
2023-05-24T05:57:22.753Z,62.5385
2023-05-24T05:58:24.757Z,55.0000
2023-05-24T05:59:26.804Z,51.1538
2023-05-24T06:00:28.957Z,41.9231
2023-05-24T06:01:30.866Z,46.6923
2023-05-24T06:02:32.970Z,48.2308
2023-05-24T06:03:35.200Z,48.3077
2023-05-24T06:04:37.059Z,45.7692
2023-05-24T06:05:39.063Z,38.6923
2023-05-24T06:06:41.154Z,30.7692
2023-05-24T06:07:43.165Z,28.6154
2023-05-24T06:08:45.282Z,31.6923
2023-05-24T06:09:47.310Z,31.8462
2023-05-24T06:10:52.039Z,33.0769
2023-05-24T06:11:51.389Z,38.7692
2023-05-24T06:12:53.473Z,44.7692
2023-05-24T06:13:55.457Z,38.4615
2023-05-24T06:14:57.561Z,29.9231
2023-05-24T06:15:59.566Z,32.5385
2023-05-24T06:17:01.690Z,28.1538
2023-05-24T06:18:03.819Z,22.9231
2023-05-24T06:19:06.603Z,25.7692
2023-05-24T06:20:07.764Z,29.7692
2023-05-24T06:21:09.807Z,23.6154
2023-05-24T06:22:11.807Z,25.4615
2023-05-24T06:23:14.016Z,28.7692
2023-05-24T06:24:15.901Z,26.3846
2023-05-24T06:25:18.008Z,27.6154
2023-05-24T06:26:20.002Z,33.3846
2023-05-24T06:27:22.151Z,34.4615
2023-05-24T06:28:24.080Z,31.4615
2023-05-24T06:29:26.154Z,30.9231
2023-05-24T06:30:28.385Z,25.1538
2023-05-24T06:31:30.221Z,25.8462
2023-05-24T06:32:32.380Z,20.5385
2023-05-24T06:33:35.766Z,16.8462
2023-05-24T06:34:36.371Z,19.9231
2023-05-24T06:35:38.413Z,20.4615
2023-05-24T06:36:40.465Z,20.8462
2023-05-24T06:37:42.497Z,15.4615
2023-05-24T06:38:44.514Z,11.8462
2023-05-24T06:39:46.626Z,12.9231
2023-05-24T06:40:48.605Z,9.0769
2023-05-24T06:41:50.659Z,10.3077
2023-05-24T06:42:52.736Z,14.8462
2023-05-24T06:43:54.772Z,12.6923
2023-05-24T06:44:56.841Z,13.1538
2023-05-24T06:45:58.884Z,19.3846
2023-05-24T06:47:01.007Z,13.1538
2023-05-24T06:48:05.024Z,8.0000
2023-05-24T06:49:05.054Z,10.0000
2023-05-24T06:50:07.033Z,11.6923
2023-05-24T06:51:09.091Z,8.3846
2023-05-24T06:52:11.130Z,14.8462
2023-05-24T06:53:13.236Z,20.8462
2023-05-24T06:54:15.243Z,17.9231
2023-05-24T06:55:17.254Z,9.0769
2023-05-24T06:56:19.322Z,11.6154
2023-05-24T06:57:21.355Z,17.4615
2023-05-24T06:58:23.392Z,16.1538
2023-05-24T06:59:25.473Z,18.6923
2023-05-24T07:00:27.583Z,20.0769
2023-05-24T07:01:29.671Z,13.5833
2023-05-24T07:02:31.622Z,13.4615
2023-05-24T07:03:33.642Z,10.5385
2023-05-24T07:04:37.532Z,11.9231
2023-05-24T07:05:37.719Z,15.1538
2023-05-24T07:06:39.829Z,8.3846
2023-05-24T07:07:41.817Z,3.4615
2023-05-24T07:08:43.833Z,10.7692
2023-05-24T07:09:45.896Z,14.1538
2023-05-24T07:10:48.119Z,20.5385
2023-05-24T07:11:50.020Z,31.6154
2023-05-24T07:12:52.016Z,30.6154
2023-05-24T07:13:54.076Z,28.8462
2023-05-24T07:14:56.120Z,28.6923
2023-05-24T07:15:58.158Z,23.5385
2023-05-24T07:17:00.340Z,19.7692
2023-05-24T07:18:02.342Z,20.6923
2023-05-24T07:19:04.949Z,20.4615
2023-05-24T07:20:06.359Z,19.0000
2023-05-24T07:21:08.404Z,16.8462
2023-05-24T07:22:10.496Z,21.1538
2023-05-24T07:23:12.552Z,20.4615
2023-05-24T07:24:16.229Z,16.2308
2023-05-24T07:25:16.581Z,11.4615
2023-05-24T07:26:18.644Z,5.8462
2023-05-24T07:27:20.650Z,2.8462
2023-05-24T07:28:22.741Z,3.0000
2023-05-24T07:29:24.981Z,3.4615
2023-05-24T07:30:32.301Z,5.0769
2023-05-24T07:31:28.870Z,3.6923
2023-05-24T07:32:30.990Z,3.3077
2023-05-24T07:33:33.040Z,3.7692
2023-05-24T07:34:35.027Z,11.9231
2023-05-24T07:35:37.087Z,15.9231
2023-05-24T07:36:39.301Z,9.5385
2023-05-24T07:37:41.228Z,0.7692
2023-05-24T07:38:43.328Z,1.6154
2023-05-24T07:39:45.224Z,2.3846
2023-05-24T07:40:47.340Z,4.3846
2023-05-24T07:41:49.330Z,36.8462
2023-05-24T07:42:51.416Z,82.2308
2023-05-24T07:43:53.478Z,66.0000
2023-05-24T07:44:55.549Z,48.1538
2023-05-24T07:45:57.522Z,28.6154
2023-05-24T07:46:59.731Z,19.1538
2023-05-24T07:48:01.861Z,16.3077
2023-05-24T07:49:03.673Z,15.0000
2023-05-24T07:50:06.065Z,13.6154
2023-05-24T07:51:08.059Z,10.4615
2023-05-24T07:52:09.784Z,9.2308
2023-05-24T07:53:11.853Z,8.0769
2023-05-24T07:54:13.894Z,11.0000
2023-05-24T07:55:15.940Z,7.3846
2023-05-24T07:56:17.953Z,10.0000
2023-05-24T07:57:20.035Z,19.5385
2023-05-24T07:58:22.093Z,18.2308
2023-05-24T07:59:24.106Z,12.0769
2023-05-24T08:00:26.259Z,4.9231
2023-05-24T08:01:28.213Z,6.0769
2023-05-24T08:02:30.439Z,6.4615
2023-05-24T08:03:32.379Z,8.5385
2023-05-24T08:04:34.367Z,13.9231
2023-05-24T08:05:36.562Z,15.7692
2023-05-24T08:06:38.496Z,11.3846
2023-05-24T08:07:40.469Z,14.0000
2023-05-24T08:08:42.555Z,17.9231
2023-05-24T08:09:44.651Z,15.9231
2023-05-24T08:10:46.604Z,21.6154
2023-05-24T08:11:48.664Z,21.1538
2023-05-24T08:12:50.667Z,21.7692
2023-05-24T08:13:52.721Z,21.6923
2023-05-24T08:14:55.272Z,27.0769
2023-05-24T08:15:56.879Z,21.9231
2023-05-24T08:16:58.887Z,17.1538
2023-05-24T08:18:00.973Z,16.5385
2023-05-24T08:19:03.017Z,15.8462
2023-05-24T08:20:05.084Z,11.6154
2023-05-24T08:21:07.035Z,10.5385
2023-05-24T08:22:09.239Z,16.6923
2023-05-24T08:23:11.351Z,12.6923
2023-05-24T08:24:13.186Z,18.7692
2023-05-24T08:25:16.974Z,14.4615
2023-05-24T08:26:17.486Z,10.3077
2023-05-24T08:27:19.314Z,7.9231
2023-05-24T08:28:21.484Z,4.6923
2023-05-24T08:29:23.423Z,5.3077
2023-05-24T08:30:25.734Z,2.6154
2023-05-24T08:31:27.564Z,3.0769
2023-05-24T08:32:29.587Z,3.5385
2023-05-24T08:33:31.630Z,3.2308
2023-05-24T08:34:33.747Z,1.0000
2023-05-24T08:35:35.776Z,5.2308
2023-05-24T08:36:37.831Z,7.0769
2023-05-24T08:37:39.955Z,9.6154
2023-05-24T08:38:41.927Z,4.0000
2023-05-24T08:39:44.120Z,6.2308
2023-05-24T08:40:46.076Z,1.9231
2023-05-24T08:42:01.026Z,3.8462
2023-05-24T08:42:50.151Z,3.1538
2023-05-24T08:43:52.185Z,2.4615
2023-05-24T08:44:54.205Z,5.4615
2023-05-24T08:45:56.282Z,5.8462
2023-05-24T08:46:58.369Z,3.7692
2023-05-24T08:48:00.463Z,2.8462
2023-05-24T08:49:02.548Z,2.0769
2023-05-24T08:50:04.499Z,6.6923
2023-05-24T08:51:06.630Z,11.3077
2023-05-24T08:52:08.642Z,13.8462
2023-05-24T08:53:10.573Z,21.0769
2023-05-24T08:54:12.662Z,28.6154
2023-05-24T08:55:14.680Z,25.3846
2023-05-24T08:56:16.780Z,22.2308
2023-05-24T08:57:18.756Z,25.2308
2023-05-24T08:58:20.838Z,29.0769
2023-05-24T08:59:22.856Z,31.2308
2023-05-24T09:00:24.931Z,32.8462
2023-05-24T09:01:28.953Z,24.6923
2023-05-24T09:02:29.007Z,25.0000
2023-05-24T09:03:31.148Z,29.0769
2023-05-24T09:04:33.109Z,29.3077
2023-05-24T09:05:35.168Z,28.5385
2023-05-24T09:06:37.191Z,29.6923
2023-05-24T09:07:39.259Z,29.9231
2023-05-24T09:08:43.628Z,27.2308
2023-05-24T09:09:43.323Z,25.6923
2023-05-24T09:10:54.554Z,19.3846
2023-05-24T09:11:47.423Z,19.3846
2023-05-24T09:12:49.470Z,31.0769
2023-05-24T09:13:51.488Z,37.5385
2023-05-24T09:14:53.621Z,36.6154
2023-05-24T09:15:55.661Z,76.0000
2023-05-24T09:16:57.665Z,61.2308
2023-05-24T09:17:59.702Z,35.9231
2023-05-24T09:19:01.747Z,27.4615
2023-05-24T09:20:03.856Z,29.6923
2023-05-24T09:21:05.866Z,35.8462
2023-05-24T09:22:08.202Z,32.6923
2023-05-24T09:23:10.032Z,34.9231
2023-05-24T09:24:11.995Z,30.0000
2023-05-24T09:25:14.083Z,28.3846
2023-05-24T09:26:16.120Z,30.5385
2023-05-24T09:27:18.122Z,33.7692
2023-05-24T09:28:20.167Z,26.7692
2023-05-24T09:29:22.359Z,21.7692
2023-05-24T09:30:24.279Z,23.5385
2023-05-24T09:31:26.344Z,18.0000
2023-05-24T09:32:28.437Z,13.0000
2023-05-24T09:33:30.393Z,15.4615
2023-05-24T09:34:32.407Z,19.8462
2023-05-24T09:35:34.645Z,18.0000
2023-05-24T09:36:36.545Z,19.9231
2023-05-24T09:37:38.757Z,19.4615
2023-05-24T09:38:40.691Z,15.2308
2023-05-24T09:39:42.701Z,14.4615
2023-05-24T09:40:44.727Z,14.3077
2023-05-24T09:41:46.910Z,17.8462
2023-05-24T09:42:49.834Z,22.8462
2023-05-24T09:43:50.896Z,27.6923
2023-05-24T09:44:53.184Z,27.0769
2023-05-24T09:45:54.960Z,26.6923
2023-05-24T09:46:57.027Z,25.1538
2023-05-24T09:47:59.137Z,26.4615
2023-05-24T09:49:01.081Z,20.3846
2023-05-24T09:50:03.165Z,14.0769
2023-05-24T09:51:05.196Z,9.3846
2023-05-24T09:52:07.305Z,8.3077
2023-05-24T09:53:09.289Z,5.6154
2023-05-24T09:54:11.296Z,8.9231
2023-05-24T09:55:13.366Z,15.6923
2023-05-24T09:56:15.430Z,14.6923
2023-05-24T09:57:17.427Z,14.0000
2023-05-24T09:58:19.484Z,14.6923
2023-05-24T09:59:21.553Z,17.0769
2023-05-24T10:00:23.658Z,20.0769
2023-05-24T10:01:25.688Z,21.5385
2023-05-24T10:02:31.369Z,21.0000
2023-05-24T10:03:29.864Z,22.6154
2023-05-24T10:04:31.861Z,22.7692
2023-05-24T10:05:33.938Z,18.0769
2023-05-24T10:06:35.871Z,16.4615
2023-05-24T10:07:37.903Z,13.2308
2023-05-24T10:08:40.046Z,8.3077
2023-05-24T10:09:42.022Z,9.0769
2023-05-24T10:10:44.456Z,6.6923
2023-05-24T10:11:46.275Z,7.2308
2023-05-24T10:12:48.322Z,6.0000
2023-05-24T10:13:50.214Z,6.4615
2023-05-24T10:14:52.330Z,8.3077
2023-05-24T10:15:54.407Z,3.4615
2023-05-24T10:16:56.389Z,1.6154
2023-05-24T10:17:58.583Z,5.1538
2023-05-24T10:19:00.447Z,30.3077
2023-05-24T10:20:02.556Z,40.1538
2023-05-24T10:21:04.762Z,19.3077
2023-05-24T10:22:06.592Z,11.3846
2023-05-24T10:23:08.628Z,6.5385
2023-05-24T10:24:10.733Z,3.8462
2023-05-24T10:25:12.835Z,1.3846
2023-05-24T10:26:14.833Z,3.6923
2023-05-24T10:27:16.967Z,4.0769
2023-05-24T10:28:18.923Z,7.4615
2023-05-24T10:29:20.938Z,14.3077
2023-05-24T10:30:23.005Z,17.3077
2023-05-24T10:31:25.127Z,13.3077
2023-05-24T10:32:27.203Z,11.0000
2023-05-24T10:33:29.166Z,11.1538
2023-05-24T10:34:31.232Z,13.7692
2023-05-24T10:35:33.246Z,8.5385
2023-05-24T10:36:35.308Z,6.3846
2023-05-24T10:37:38.010Z,3.7692
2023-05-24T10:38:39.434Z,8.6923
2023-05-24T10:39:41.475Z,7.3846
2023-05-24T10:40:43.503Z,13.9231
2023-05-24T10:41:45.608Z,11.6923
2023-05-24T10:42:47.685Z,10.6923
2023-05-24T10:44:07.301Z,14.6154
2023-05-24T10:44:51.743Z,12.3077
2023-05-24T10:45:53.838Z,19.2308
2023-05-24T10:46:55.876Z,23.7692
2023-05-24T10:47:57.907Z,20.6923
2023-05-24T10:48:59.931Z,15.8462
2023-05-24T10:50:02.008Z,14.6154
2023-05-24T10:51:04.210Z,12.7692
2023-05-24T10:52:06.062Z,8.8462
2023-05-24T10:53:08.119Z,9.3077
2023-05-24T10:54:10.191Z,6.1538
2023-05-24T10:55:12.241Z,12.7692
2023-05-24T10:56:14.290Z,8.4615
2023-05-24T10:57:16.350Z,8.5385
2023-05-24T10:58:18.372Z,12.0000
2023-05-24T10:59:20.416Z,7.6154
2023-05-24T11:00:33.683Z,3.2308
2023-05-24T11:01:24.593Z,2.4615
2023-05-24T11:02:26.650Z,2.7692
2023-05-24T11:03:28.923Z,4.5385
2023-05-24T11:04:30.700Z,8.0769
2023-05-24T11:05:32.751Z,15.9231
2023-05-24T11:06:34.811Z,16.3846
2023-05-24T11:07:36.854Z,14.8462
2023-05-24T11:08:38.921Z,40.7692
2023-05-24T11:09:40.944Z,55.8462
2023-05-24T11:10:43.380Z,46.5385
2023-05-24T11:11:45.023Z,39.3077
2023-05-24T11:12:47.125Z,41.2308
2023-05-24T11:13:49.153Z,39.6923
2023-05-24T11:14:51.231Z,32.8462
2023-05-24T11:15:53.281Z,19.7692
2023-05-24T11:16:55.385Z,14.5385
2023-05-24T11:17:57.522Z,9.1538
2023-05-24T11:18:59.408Z,7.5385
2023-05-24T11:20:01.511Z,3.2308
2023-05-24T11:21:04.097Z,0.3846
2023-05-24T11:22:05.561Z,0.4615
2023-05-24T11:23:07.593Z,1.2308
2023-05-24T11:24:09.768Z,3.0769
2023-05-24T11:25:11.692Z,5.1538
2023-05-24T11:26:13.775Z,9.4615
2023-05-24T11:27:15.810Z,15.5385
2023-05-24T11:28:17.900Z,16.7692
2023-05-24T11:29:19.911Z,13.6923
2023-05-24T11:30:21.935Z,20.6154
2023-05-24T11:31:24.035Z,22.4615
2023-05-24T11:32:26.151Z,16.2308
2023-05-24T11:33:28.097Z,13.6923
2023-05-24T11:34:30.116Z,12.3846
2023-05-24T11:35:32.197Z,15.5385
2023-05-24T11:36:34.235Z,19.2308
2023-05-24T11:37:46.135Z,21.1538
2023-05-24T11:38:38.318Z,17.9231
2023-05-24T11:39:40.399Z,23.1538
2023-05-24T11:40:42.675Z,19.3077
2023-05-24T11:41:44.513Z,23.1538
2023-05-24T11:42:46.548Z,23.3846
2023-05-24T11:43:48.603Z,18.6923
2023-05-24T11:44:51.017Z,18.0769
2023-05-24T11:45:52.802Z,21.8462
2023-05-24T11:46:54.781Z,21.2308
2023-05-24T11:47:56.854Z,19.3077
2023-05-24T11:48:58.804Z,22.8462
2023-05-24T11:50:00.847Z,27.7692
2023-05-24T11:51:02.895Z,27.9231
2023-05-24T11:52:04.966Z,31.3077
2023-05-24T11:53:07.027Z,32.8462
2023-05-24T11:54:09.052Z,27.0000
2023-05-24T11:55:11.115Z,28.5385
2023-05-24T11:56:13.136Z,21.3846
2023-05-24T11:57:15.164Z,20.7692
2023-05-24T11:58:17.253Z,21.6923
2023-05-24T11:59:19.279Z,26.1538
2023-05-24T12:00:21.526Z,26.3077
2023-05-24T12:01:23.584Z,29.3846
2023-05-24T12:02:25.443Z,26.5385
2023-05-24T12:03:27.618Z,28.2308
2023-05-24T12:04:29.742Z,30.0000
2023-05-24T12:05:31.558Z,28.6923
2023-05-24T12:06:33.597Z,34.3846
2023-05-24T12:07:35.690Z,37.4615
2023-05-24T12:08:37.678Z,35.8462
2023-05-24T12:09:39.758Z,32.9231
2023-05-24T12:10:41.991Z,32.4615
2023-05-24T12:11:43.870Z,35.6154
2023-05-24T12:12:46.335Z,37.0000
2023-05-24T12:13:47.917Z,33.8462
2023-05-24T12:14:49.932Z,33.3846
2023-05-24T12:15:54.897Z,38.3846
2023-05-24T12:16:54.043Z,35.0000
2023-05-24T12:17:56.719Z,36.0000
2023-05-24T12:19:05.348Z,39.6923
2023-05-24T12:20:00.315Z,34.7692
2023-05-24T12:21:02.237Z,36.7692
2023-05-24T12:22:04.284Z,35.8462
2023-05-24T12:23:06.317Z,34.8462
2023-05-24T12:24:08.418Z,31.6154
2023-05-24T12:25:10.465Z,32.0000
2023-05-24T12:26:12.448Z,34.7692
2023-05-24T12:27:14.529Z,34.0769
2023-05-24T12:28:16.554Z,32.2308
2023-05-24T12:29:18.805Z,32.1538
2023-05-24T12:30:20.642Z,37.6923
2023-05-24T12:31:22.697Z,39.0000
2023-05-24T12:32:24.791Z,37.6923
2023-05-24T12:33:26.781Z,32.3077
2023-05-24T12:34:28.847Z,33.6923
2023-05-24T12:35:30.884Z,32.8462
2023-05-24T12:36:32.941Z,35.9231
2023-05-24T12:37:34.950Z,37.8462
2023-05-24T12:38:37.009Z,37.0000
2023-05-24T12:39:39.141Z,40.1538
2023-05-24T12:40:41.354Z,45.3077
2023-05-24T12:41:43.239Z,51.7692
2023-05-24T12:42:45.335Z,49.0769
2023-05-24T12:43:47.314Z,46.3846
2023-05-24T12:44:49.377Z,42.0000
2023-05-24T12:45:53.604Z,40.0000
2023-05-24T12:46:53.539Z,43.1538
2023-05-24T12:47:55.526Z,41.8462
2023-05-24T12:48:57.545Z,43.5385
2023-05-24T12:49:59.732Z,43.6154
2023-05-24T12:51:01.697Z,40.6154
2023-05-24T12:52:03.693Z,42.0769
2023-05-24T12:53:05.745Z,41.8462
2023-05-24T12:54:07.822Z,39.1538
2023-05-24T12:55:09.985Z,36.7692
2023-05-24T12:56:11.949Z,41.0000
2023-05-24T12:57:13.981Z,43.8462
2023-05-24T12:58:15.986Z,42.9231
2023-05-24T12:59:18.062Z,42.4615
2023-05-24T13:00:20.055Z,46.8462
2023-05-24T13:01:22.366Z,45.8462
2023-05-24T13:02:24.176Z,46.8462
2023-05-24T13:03:26.189Z,44.8462
2023-05-24T13:04:28.264Z,40.1538
2023-05-24T13:05:30.403Z,43.4615
2023-05-24T13:06:32.334Z,45.3846
2023-05-24T13:07:34.454Z,42.3846
2023-05-24T13:08:38.116Z,42.5385
2023-05-24T13:09:38.506Z,48.0000
2023-05-24T13:10:40.654Z,44.8462
2023-05-24T13:11:42.592Z,43.0000
2023-05-24T13:12:44.619Z,44.6154
2023-05-24T13:13:47.133Z,52.0000
2023-05-24T13:14:50.679Z,57.0769
2023-05-24T13:15:50.759Z,56.3077
2023-05-24T13:16:53.073Z,50.0000
2023-05-24T13:17:54.998Z,44.1538
2023-05-24T13:18:56.924Z,44.3077
2023-05-24T13:20:01.726Z,40.5385
2023-05-24T13:21:00.993Z,32.0769
2023-05-24T13:22:03.062Z,37.7692
2023-05-24T13:23:05.111Z,37.8462
2023-05-24T13:24:07.102Z,33.5385
2023-05-24T13:25:09.157Z,32.0769
2023-05-24T13:26:11.239Z,29.0769
2023-05-24T13:27:13.289Z,29.0000
2023-05-24T13:28:15.324Z,28.2308
2023-05-24T13:29:34.181Z,28.9231
2023-05-24T13:30:19.418Z,31.6923
2023-05-24T13:31:21.488Z,28.7692
2023-05-24T13:32:23.574Z,27.6923
2023-05-24T13:33:25.530Z,25.0769
2023-05-24T13:34:27.582Z,23.6154
2023-05-24T13:35:29.620Z,23.1538
2023-05-24T13:36:31.672Z,20.8462
2023-05-24T13:37:33.754Z,29.8462
2023-05-24T13:38:35.769Z,33.7692
2023-05-24T13:39:37.835Z,25.3077
2023-05-24T13:40:41.777Z,23.8462
2023-05-24T13:41:42.174Z,32.6154
2023-05-24T13:42:44.017Z,39.3846
2023-05-24T13:43:45.985Z,48.4615
2023-05-24T13:44:48.032Z,44.4615
2023-05-24T13:45:50.070Z,39.3077
2023-05-24T13:46:52.165Z,41.0000
2023-05-24T13:47:54.216Z,44.5385
2023-05-24T13:48:56.247Z,49.1538
2023-05-24T13:49:58.241Z,43.5385
2023-05-24T13:51:00.301Z,39.3077
2023-05-24T13:52:02.389Z,42.6154
2023-05-24T13:53:04.414Z,48.2308
2023-05-24T13:54:06.437Z,50.7692
2023-05-24T13:55:08.530Z,49.3846
2023-05-24T13:56:10.516Z,55.3846
2023-05-24T13:57:12.652Z,52.6923
2023-05-24T13:58:14.602Z,68.8462
2023-05-24T13:59:16.735Z,101.8462
2023-05-24T14:00:18.737Z,101.7692
2023-05-24T14:01:20.932Z,85.8462
2023-05-24T14:02:22.848Z,75.0000
2023-05-24T14:03:24.835Z,69.2308
2023-05-24T14:04:26.884Z,62.1538
2023-05-24T14:05:28.969Z,55.6923
2023-05-24T14:06:30.987Z,56.4615
2023-05-24T14:07:33.087Z,61.4615
2023-05-24T14:08:35.097Z,121.4615
2023-05-24T14:09:37.217Z,167.0000
2023-05-24T14:10:39.220Z,91.7692
2023-05-24T14:11:41.348Z,81.3846
2023-05-24T14:12:43.287Z,77.6154
2023-05-24T14:15:49.520Z,70.8462
2023-05-24T14:16:51.453Z,71.8462
2023-05-24T14:17:53.605Z,71.0000
2023-05-24T14:18:55.553Z,69.6923
2023-05-24T14:19:57.750Z,68.2308
2023-05-24T14:20:59.655Z,64.2308
2023-05-24T14:22:01.731Z,69.3077
2023-05-24T14:23:03.932Z,72.0000
2023-05-24T14:24:05.809Z,70.8462
2023-05-24T14:25:07.825Z,77.0769
2023-05-24T14:26:09.935Z,78.2308
2023-05-24T14:27:11.907Z,78.4615
2023-05-24T14:28:14.016Z,77.0000
2023-05-24T14:29:16.084Z,74.6154
2023-05-24T14:30:18.125Z,78.8462
2023-05-24T14:31:20.139Z,80.3077
2023-05-24T14:32:22.386Z,75.6923
2023-05-24T14:33:24.180Z,71.6923
2023-05-24T14:34:26.280Z,72.3077
2023-05-24T14:35:28.313Z,79.0000
2023-05-24T14:36:30.407Z,79.3077
2023-05-24T14:37:32.457Z,77.7692
2023-05-24T14:38:34.418Z,73.5385
2023-05-24T14:39:36.477Z,70.5385
2023-05-24T14:40:39.051Z,73.1538
2023-05-24T14:41:40.585Z,74.9231
2023-05-24T14:42:42.605Z,67.0769
2023-05-24T14:43:44.663Z,69.5385
2023-05-24T14:44:46.716Z,74.0000
2023-05-24T14:45:49.094Z,68.9231
2023-05-24T14:46:52.007Z,74.6923
2023-05-24T14:47:52.909Z,73.3846
2023-05-24T14:48:54.919Z,92.6154
2023-05-24T14:49:56.923Z,85.7692
2023-05-24T14:50:58.993Z,78.3077
2023-05-24T14:52:01.089Z,69.3077
2023-05-24T14:53:03.093Z,65.2308
2023-05-24T14:54:05.180Z,69.7692
2023-05-24T14:55:07.215Z,75.1538
2023-05-24T14:56:09.314Z,69.0000
2023-05-24T14:57:11.313Z,67.6923
2023-05-24T14:58:13.346Z,65.6154
2023-05-24T14:59:15.369Z,63.4615
2023-05-24T15:00:19.784Z,59.1538
2023-05-24T15:01:19.526Z,61.0000
2023-05-24T15:02:21.673Z,52.7692
2023-05-24T15:03:23.717Z,47.3846
2023-05-24T15:04:25.617Z,52.6923
2023-05-24T15:05:27.660Z,56.5385
2023-05-24T15:06:29.729Z,60.6923
2023-05-24T15:07:31.797Z,60.6154
2023-05-24T15:08:33.873Z,71.2308
2023-05-24T15:09:35.826Z,70.7692
2023-05-24T15:10:37.939Z,65.7692
2023-05-24T15:11:40.035Z,64.0000
2023-05-24T15:12:42.057Z,60.3077
2023-05-24T15:13:44.056Z,60.6154
2023-05-24T15:14:46.089Z,62.9231
2023-05-24T15:15:48.130Z,69.7692
2023-05-24T15:16:50.232Z,72.4615
2023-05-24T15:17:52.290Z,63.7692
2023-05-24T15:18:54.283Z,60.0000
2023-05-24T15:19:56.337Z,60.6154
2023-05-24T15:20:58.422Z,57.7692
2023-05-24T15:22:00.534Z,61.3846
2023-05-24T15:23:02.439Z,67.4615
2023-05-24T15:24:04.517Z,70.7692
2023-05-24T15:25:06.570Z,89.6154
2023-05-24T15:26:08.636Z,87.5385
2023-05-24T15:27:10.741Z,79.0769
2023-05-24T15:28:12.806Z,75.2308
2023-05-24T15:29:14.736Z,66.4615
2023-05-24T15:30:16.827Z,67.7692
2023-05-24T15:31:18.867Z,67.1538
2023-05-24T15:32:20.864Z,65.0000
2023-05-24T15:33:23.005Z,63.3077
2023-05-24T15:34:24.976Z,57.0000
2023-05-24T15:35:27.020Z,50.8462
2023-05-24T15:36:29.087Z,47.6154
2023-05-24T15:37:31.151Z,43.1538
2023-05-24T15:38:33.164Z,47.6154
2023-05-24T15:39:35.204Z,55.1538
2023-05-24T15:40:37.247Z,56.6154
2023-05-24T15:41:39.336Z,54.3077
2023-05-24T15:42:41.469Z,55.4615
2023-05-24T15:43:43.426Z,50.0000
2023-05-24T15:44:45.440Z,46.6154
2023-05-24T15:45:47.493Z,44.4615
2023-05-24T15:46:49.606Z,46.2308
2023-05-24T15:47:51.682Z,53.9231
2023-05-24T15:48:53.657Z,60.2308
2023-05-24T15:49:55.754Z,49.4615
2023-05-24T15:51:25.693Z,51.3077
2023-05-24T15:52:04.329Z,50.0769
2023-05-24T15:53:02.069Z,52.1538
2023-05-24T15:54:03.921Z,56.6154
2023-05-24T15:55:05.944Z,61.3077
2023-05-24T15:56:08.064Z,66.5385
2023-05-24T15:57:10.079Z,90.5385
2023-05-24T15:58:12.155Z,117.0000
2023-05-24T15:59:14.191Z,104.2308
2023-05-24T16:00:16.224Z,101.0000
2023-05-24T16:01:18.339Z,86.9231
2023-05-24T16:02:21.616Z,81.4615
2023-05-24T16:03:22.505Z,89.1538
2023-05-24T16:04:24.395Z,86.3077
2023-05-24T16:05:26.567Z,89.3077
2023-05-24T16:06:28.498Z,86.3077
2023-05-24T16:07:30.523Z,76.6923
2023-05-24T16:08:32.601Z,69.5385
2023-05-24T16:09:34.641Z,70.3846
2023-05-24T16:10:36.663Z,68.6923
2023-05-24T16:11:38.710Z,61.0769
2023-05-24T16:12:40.888Z,61.6154
2023-05-24T16:13:42.825Z,59.6154
2023-05-24T16:14:44.910Z,65.4615
2023-05-24T16:15:47.005Z,72.8462
2023-05-24T16:16:49.078Z,65.5385
2023-05-24T16:17:51.148Z,68.6154
2023-05-24T16:18:53.099Z,73.9231
2023-05-24T16:19:55.311Z,74.4615
2023-05-24T16:20:57.311Z,79.9231
2023-05-24T16:21:59.237Z,89.0769
2023-05-24T16:23:01.266Z,77.5385
2023-05-24T16:24:03.336Z,88.8462
2023-05-24T16:25:05.357Z,89.9231
2023-05-24T16:26:07.406Z,99.5385
2023-05-24T16:27:09.526Z,102.7692
2023-05-24T16:28:11.579Z,95.4615
2023-05-24T16:29:13.579Z,84.1538
2023-05-24T16:30:15.731Z,85.3077
2023-05-24T16:31:17.755Z,87.6154
2023-05-24T16:32:19.827Z,89.2308
2023-05-24T16:33:21.763Z,82.2308
2023-05-24T16:34:23.820Z,78.9231
2023-05-24T16:35:25.915Z,78.8462
2023-05-24T16:36:27.865Z,83.9231
2023-05-24T16:37:29.947Z,80.9231
2023-05-24T16:38:33.220Z,83.6154
2023-05-24T16:39:34.105Z,80.8462
2023-05-24T16:40:36.106Z,85.9231
2023-05-24T16:41:38.378Z,86.3077
2023-05-24T16:42:40.182Z,78.6923
2023-05-24T16:43:42.419Z,77.2308
2023-05-24T16:44:44.572Z,72.0769
2023-05-24T16:45:46.462Z,70.6923
2023-05-24T16:46:48.454Z,70.1538
2023-05-24T16:47:50.544Z,69.1538
2023-05-24T16:48:52.576Z,66.0000
2023-05-24T16:49:54.623Z,60.3846
2023-05-24T16:50:56.752Z,69.4615
2023-05-24T16:51:58.832Z,64.1538
2023-05-24T16:53:00.809Z,62.8462
2023-05-24T16:54:02.793Z,77.4615
2023-05-24T16:55:04.900Z,76.0769
2023-05-24T16:56:07.022Z,82.6154
2023-05-24T16:57:09.243Z,94.9231
2023-05-24T16:58:11.002Z,89.1538
2023-05-24T16:59:13.273Z,91.7692
2023-05-24T17:00:15.106Z,81.6154
2023-05-24T17:01:17.191Z,72.3846
2023-05-24T17:02:19.189Z,86.1538
2023-05-24T17:03:21.330Z,78.1538
2023-05-24T17:04:23.302Z,75.4615
2023-05-24T17:05:25.341Z,77.4615
2023-05-24T17:06:27.391Z,105.3846